sensor_id;sensor_type;location;lat;lon;timestamp;temperature;humidity
13256;DHT22;37913;48.370;10.930;2023-07-02T00:01:56;16.70;99.90
13256;DHT22;37913;48.370;10.930;2023-07-02T00:04:23;16.70;99.90
13256;DHT22;37913;48.370;10.930;2023-07-02T00:06:51;16.70;99.90
13256;DHT22;37913;48.370;10.930;2023-07-02T00:09:18;16.70;99.90
13256;DHT22;37913;48.370;10.930;2023-07-02T00:11:46;16.70;99.90
13256;DHT22;37913;48.370;10.930;2023-07-02T00:14:15;16.70;99.90
13256;DHT22;37913;48.370;10.930;2023-07-02T00:16:44;16.70;99.90
13256;DHT22;37913;48.370;10.930;2023-07-02T00:19:11;16.70;99.90
13256;DHT22;37913;48.370;10.930;2023-07-02T00:21:39;16.70;99.90
13256;DHT22;37913;48.370;10.930;2023-07-02T00:24:06;16.70;99.90
13256;DHT22;37913;48.370;10.930;2023-07-02T00:26:35;16.60;99.90
13256;DHT22;37913;48.370;10.930;2023-07-02T00:29:03;16.50;99.90
13256;DHT22;37913;48.370;10.930;2023-07-02T00:31:33;16.60;99.90
13256;DHT22;37913;48.370;10.930;2023-07-02T00:34:00;16.60;99.90
13256;DHT22;37913;48.370;10.930;2023-07-02T00:36:28;16.60;99.90
13256;DHT22;37913;48.370;10.930;2023-07-02T00:38:55;16.50;99.90
13256;DHT22;37913;48.370;10.930;2023-07-02T00:41:22;16.50;99.90
13256;DHT22;37913;48.370;10.930;2023-07-02T00:43:49;16.50;99.90
13256;DHT22;37913;48.370;10.930;2023-07-02T00:46:20;16.50;99.90
13256;DHT22;37913;48.370;10.930;2023-07-02T00:48:50;16.50;99.90
13256;DHT22;37913;48.370;10.930;2023-07-02T00:51:19;16.50;99.90
13256;DHT22;37913;48.370;10.930;2023-07-02T00:53:47;16.50;99.90
13256;DHT22;37913;48.370;10.930;2023-07-02T00:56:14;16.50;99.90
13256;DHT22;37913;48.370;10.930;2023-07-02T00:58:43;16.50;99.90
13256;DHT22;37913;48.370;10.930;2023-07-02T01:01:14;16.50;99.90
13256;DHT22;37913;48.370;10.930;2023-07-02T01:03:51;16.50;99.90
13256;DHT22;37913;48.370;10.930;2023-07-02T01:06:22;16.40;99.90
13256;DHT22;37913;48.370;10.930;2023-07-02T01:08:51;16.50;99.90
13256;DHT22;37913;48.370;10.930;2023-07-02T01:11:19;16.40;99.90
13256;DHT22;37913;48.370;10.930;2023-07-02T01:13:48;16.40;99.90
13256;DHT22;37913;48.370;10.930;2023-07-02T01:16:17;16.50;99.90
13256;DHT22;37913;48.370;10.930;2023-07-02T01:18:45;16.50;99.90
13256;DHT22;37913;48.370;10.930;2023-07-02T01:21:13;16.40;99.90
13256;DHT22;37913;48.370;10.930;2023-07-02T01:23:42;16.40;99.90
13256;DHT22;37913;48.370;10.930;2023-07-02T01:26:09;16.40;99.90
13256;DHT22;37913;48.370;10.930;2023-07-02T01:28:36;16.40;99.90
13256;DHT22;37913;48.370;10.930;2023-07-02T01:31:04;16.50;99.90
13256;DHT22;37913;48.370;10.930;2023-07-02T01:33:32;16.40;99.90
13256;DHT22;37913;48.370;10.930;2023-07-02T01:35:59;16.50;99.90
13256;DHT22;37913;48.370;10.930;2023-07-02T01:38:27;16.50;99.90
13256;DHT22;37913;48.370;10.930;2023-07-02T01:40:54;16.50;99.90
13256;DHT22;37913;48.370;10.930;2023-07-02T01:43:21;16.60;99.90
13256;DHT22;37913;48.370;10.930;2023-07-02T01:45:48;16.60;99.90
13256;DHT22;37913;48.370;10.930;2023-07-02T01:48:15;16.60;99.90
13256;DHT22;37913;48.370;10.930;2023-07-02T01:50:42;16.70;99.90
13256;DHT22;37913;48.370;10.930;2023-07-02T01:53:09;16.70;99.90
13256;DHT22;37913;48.370;10.930;2023-07-02T01:55:39;16.70;99.90
13256;DHT22;37913;48.370;10.930;2023-07-02T01:58:06;16.70;99.90
13256;DHT22;37913;48.370;10.930;2023-07-02T02:00:33;16.80;99.90
13256;DHT22;37913;48.370;10.930;2023-07-02T02:02:59;16.90;99.90
13256;DHT22;37913;48.370;10.930;2023-07-02T02:05:26;16.80;99.90
13256;DHT22;37913;48.370;10.930;2023-07-02T02:07:54;16.80;99.90
13256;DHT22;37913;48.370;10.930;2023-07-02T02:10:21;16.60;99.90
13256;DHT22;37913;48.370;10.930;2023-07-02T02:12:49;16.40;99.90
13256;DHT22;37913;48.370;10.930;2023-07-02T02:15:16;16.30;99.90
13256;DHT22;37913;48.370;10.930;2023-07-02T02:17:43;16.20;99.90
13256;DHT22;37913;48.370;10.930;2023-07-02T02:20:12;16.10;99.90
13256;DHT22;37913;48.370;10.930;2023-07-02T02:22:39;15.90;99.90
13256;DHT22;37913;48.370;10.930;2023-07-02T02:25:06;15.80;99.90
13256;DHT22;37913;48.370;10.930;2023-07-02T02:27:34;15.80;99.90
13256;DHT22;37913;48.370;10.930;2023-07-02T02:30:03;15.70;99.90
13256;DHT22;37913;48.370;10.930;2023-07-02T02:32:30;15.70;99.90
13256;DHT22;37913;48.370;10.930;2023-07-02T02:34:57;15.60;99.90
13256;DHT22;37913;48.370;10.930;2023-07-02T02:37:24;15.60;99.90
13256;DHT22;37913;48.370;10.930;2023-07-02T02:39:51;15.60;99.90
13256;DHT22;37913;48.370;10.930;2023-07-02T02:42:18;15.60;99.90
13256;DHT22;37913;48.370;10.930;2023-07-02T02:44:45;15.50;99.90
13256;DHT22;37913;48.370;10.930;2023-07-02T02:47:13;15.40;99.90
13256;DHT22;37913;48.370;10.930;2023-07-02T02:49:40;15.40;99.90
13256;DHT22;37913;48.370;10.930;2023-07-02T02:52:07;15.30;99.90
13256;DHT22;37913;48.370;10.930;2023-07-02T02:54:34;15.30;99.90
13256;DHT22;37913;48.370;10.930;2023-07-02T02:57:01;15.30;99.90
13256;DHT22;37913;48.370;10.930;2023-07-02T02:59:28;15.30;99.90
13256;DHT22;37913;48.370;10.930;2023-07-02T03:01:54;15.20;99.90
13256;DHT22;37913;48.370;10.930;2023-07-02T03:04:23;15.30;99.90
13256;DHT22;37913;48.370;10.930;2023-07-02T03:06:51;15.30;99.90
13256;DHT22;37913;48.370;10.930;2023-07-02T03:09:18;15.30;99.90
13256;DHT22;37913;48.370;10.930;2023-07-02T03:11:48;15.30;99.90
13256;DHT22;37913;48.370;10.930;2023-07-02T03:14:15;15.30;99.90
13256;DHT22;37913;48.370;10.930;2023-07-02T03:16:43;15.30;99.90
13256;DHT22;37913;48.370;10.930;2023-07-02T03:19:13;15.30;99.90
13256;DHT22;37913;48.370;10.930;2023-07-02T03:21:43;15.40;99.90
13256;DHT22;37913;48.370;10.930;2023-07-02T03:24:10;15.40;99.90
13256;DHT22;37913;48.370;10.930;2023-07-02T03:26:38;15.40;99.90
13256;DHT22;37913;48.370;10.930;2023-07-02T03:29:06;15.50;99.90
13256;DHT22;37913;48.370;10.930;2023-07-02T03:31:33;15.50;99.90
13256;DHT22;37913;48.370;10.930;2023-07-02T03:34:03;15.50;99.90
13256;DHT22;37913;48.370;10.930;2023-07-02T03:36:30;15.50;99.90
13256;DHT22;37913;48.370;10.930;2023-07-02T03:38:58;15.50;99.90
13256;DHT22;37913;48.370;10.930;2023-07-02T03:41:25;15.40;99.90
13256;DHT22;37913;48.370;10.930;2023-07-02T03:43:52;15.50;99.90
13256;DHT22;37913;48.370;10.930;2023-07-02T03:46:19;15.50;99.90
13256;DHT22;37913;48.370;10.930;2023-07-02T03:48:46;15.40;99.90
13256;DHT22;37913;48.370;10.930;2023-07-02T03:51:13;15.40;99.90
13256;DHT22;37913;48.370;10.930;2023-07-02T03:53:42;15.40;99.90
13256;DHT22;37913;48.370;10.930;2023-07-02T03:56:10;15.40;99.90
13256;DHT22;37913;48.370;10.930;2023-07-02T03:58:37;15.40;99.90
13256;DHT22;37913;48.370;10.930;2023-07-02T04:01:04;15.50;99.90
13256;DHT22;37913;48.370;10.930;2023-07-02T04:03:32;15.50;99.90
13256;DHT22;37913;48.370;10.930;2023-07-02T04:05:59;15.60;99.90
13256;DHT22;37913;48.370;10.930;2023-07-02T04:08:26;15.60;99.90
13256;DHT22;37913;48.370;10.930;2023-07-02T04:10:54;15.50;99.90
13256;DHT22;37913;48.370;10.930;2023-07-02T04:13:22;15.50;99.90
13256;DHT22;37913;48.370;10.930;2023-07-02T04:15:49;15.50;99.90
13256;DHT22;37913;48.370;10.930;2023-07-02T04:18:16;15.60;99.90
13256;DHT22;37913;48.370;10.930;2023-07-02T04:20:44;15.70;99.90
13256;DHT22;37913;48.370;10.930;2023-07-02T04:23:11;15.70;99.90
13256;DHT22;37913;48.370;10.930;2023-07-02T04:25:38;15.70;99.90
13256;DHT22;37913;48.370;10.930;2023-07-02T04:28:05;15.70;99.90
13256;DHT22;37913;48.370;10.930;2023-07-02T04:30:33;15.80;99.90
13256;DHT22;37913;48.370;10.930;2023-07-02T04:33:00;15.80;99.90
13256;DHT22;37913;48.370;10.930;2023-07-02T04:35:27;15.80;99.90
13256;DHT22;37913;48.370;10.930;2023-07-02T04:37:54;15.70;99.90
13256;DHT22;37913;48.370;10.930;2023-07-02T04:40:23;15.80;99.90
13256;DHT22;37913;48.370;10.930;2023-07-02T04:42:50;15.80;99.90
13256;DHT22;37913;48.370;10.930;2023-07-02T04:45:24;15.80;99.90
13256;DHT22;37913;48.370;10.930;2023-07-02T04:47:53;15.90;99.90
13256;DHT22;37913;48.370;10.930;2023-07-02T04:50:20;15.90;99.90
13256;DHT22;37913;48.370;10.930;2023-07-02T04:52:47;16.00;99.90
13256;DHT22;37913;48.370;10.930;2023-07-02T04:55:14;16.10;99.90
13256;DHT22;37913;48.370;10.930;2023-07-02T04:57:41;16.30;99.90
13256;DHT22;37913;48.370;10.930;2023-07-02T05:00:10;16.30;99.90
13256;DHT22;37913;48.370;10.930;2023-07-02T05:02:38;16.10;99.90
13256;DHT22;37913;48.370;10.930;2023-07-02T05:05:07;15.90;99.90
13256;DHT22;37913;48.370;10.930;2023-07-02T05:07:34;15.70;99.90
13256;DHT22;37913;48.370;10.930;2023-07-02T05:10:02;15.60;99.90
13256;DHT22;37913;48.370;10.930;2023-07-02T05:12:29;15.60;99.90
13256;DHT22;37913;48.370;10.930;2023-07-02T05:14:56;15.70;99.90
13256;DHT22;37913;48.370;10.930;2023-07-02T05:17:23;15.60;99.90
13256;DHT22;37913;48.370;10.930;2023-07-02T05:19:50;15.50;99.90
13256;DHT22;37913;48.370;10.930;2023-07-02T05:22:20;15.60;99.90
13256;DHT22;37913;48.370;10.930;2023-07-02T05:24:48;15.50;99.90
13256;DHT22;37913;48.370;10.930;2023-07-02T05:27:15;15.50;99.90
13256;DHT22;37913;48.370;10.930;2023-07-02T05:29:43;15.50;99.90
13256;DHT22;37913;48.370;10.930;2023-07-02T05:32:10;15.50;99.90
13256;DHT22;37913;48.370;10.930;2023-07-02T05:34:37;15.60;99.90
13256;DHT22;37913;48.370;10.930;2023-07-02T05:37:10;15.50;99.90
13256;DHT22;37913;48.370;10.930;2023-07-02T05:39:41;15.50;99.90
13256;DHT22;37913;48.370;10.930;2023-07-02T05:42:15;12.80;99.90
13256;DHT22;37913;48.370;10.930;2023-07-02T05:44:41;15.50;99.90
13256;DHT22;37913;48.370;10.930;2023-07-02T05:47:08;15.60;99.90
13256;DHT22;37913;48.370;10.930;2023-07-02T05:49:35;15.80;99.90
13256;DHT22;37913;48.370;10.930;2023-07-02T05:52:05;15.90;99.90
13256;DHT22;37913;48.370;10.930;2023-07-02T05:54:32;16.10;99.90
13256;DHT22;37913;48.370;10.930;2023-07-02T05:57:01;16.10;99.90
13256;DHT22;37913;48.370;10.930;2023-07-02T05:59:28;15.90;99.90
13256;DHT22;37913;48.370;10.930;2023-07-02T06:01:55;16.10;99.90
13256;DHT22;37913;48.370;10.930;2023-07-02T06:04:22;16.00;99.90
13256;DHT22;37913;48.370;10.930;2023-07-02T06:06:49;16.20;99.90
13256;DHT22;37913;48.370;10.930;2023-07-02T06:09:16;16.20;99.90
13256;DHT22;37913;48.370;10.930;2023-07-02T06:11:43;16.10;99.90
13256;DHT22;37913;48.370;10.930;2023-07-02T06:14:12;16.20;99.90
13256;DHT22;37913;48.370;10.930;2023-07-02T06:16:39;16.10;99.90
13256;DHT22;37913;48.370;10.930;2023-07-02T06:19:07;16.10;99.90
13256;DHT22;37913;48.370;10.930;2023-07-02T06:21:34;16.00;99.90
13256;DHT22;37913;48.370;10.930;2023-07-02T06:24:01;16.00;99.90
13256;DHT22;37913;48.370;10.930;2023-07-02T06:26:28;16.00;99.90
13256;DHT22;37913;48.370;10.930;2023-07-02T06:28:57;16.10;99.90
13256;DHT22;37913;48.370;10.930;2023-07-02T06:31:25;16.20;99.90
13256;DHT22;37913;48.370;10.930;2023-07-02T06:33:52;16.00;99.90
13256;DHT22;37913;48.370;10.930;2023-07-02T06:36:19;15.80;99.90
13256;DHT22;37913;48.370;10.930;2023-07-02T06:38:46;15.70;99.90
13256;DHT22;37913;48.370;10.930;2023-07-02T06:41:13;15.50;99.90
13256;DHT22;37913;48.370;10.930;2023-07-02T06:43:42;15.40;99.90
13256;DHT22;37913;48.370;10.930;2023-07-02T06:46:10;15.50;99.90
13256;DHT22;37913;48.370;10.930;2023-07-02T06:48:38;15.40;99.90
13256;DHT22;37913;48.370;10.930;2023-07-02T06:51:05;15.20;99.90
13256;DHT22;37913;48.370;10.930;2023-07-02T06:53:32;15.30;99.90
13256;DHT22;37913;48.370;10.930;2023-07-02T06:55:59;15.40;99.90
13256;DHT22;37913;48.370;10.930;2023-07-02T06:58:26;15.40;99.90
13256;DHT22;37913;48.370;10.930;2023-07-02T07:00:56;15.30;99.90
13256;DHT22;37913;48.370;10.930;2023-07-02T07:03:23;15.40;99.90
13256;DHT22;37913;48.370;10.930;2023-07-02T07:05:51;15.50;99.90
13256;DHT22;37913;48.370;10.930;2023-07-02T07:08:18;15.60;99.90
13256;DHT22;37913;48.370;10.930;2023-07-02T07:10:45;15.30;99.90
13256;DHT22;37913;48.370;10.930;2023-07-02T07:13:13;15.40;99.90
13256;DHT22;37913;48.370;10.930;2023-07-02T07:15:41;15.20;99.90
13256;DHT22;37913;48.370;10.930;2023-07-02T07:18:09;15.40;99.90
13256;DHT22;37913;48.370;10.930;2023-07-02T07:20:39;15.70;99.90
13256;DHT22;37913;48.370;10.930;2023-07-02T07:23:08;15.60;99.90
13256;DHT22;37913;48.370;10.930;2023-07-02T07:25:35;15.50;99.90
13256;DHT22;37913;48.370;10.930;2023-07-02T07:28:02;15.90;99.90
13256;DHT22;37913;48.370;10.930;2023-07-02T07:30:28;16.20;99.90
13256;DHT22;37913;48.370;10.930;2023-07-02T07:32:56;16.60;99.90
13256;DHT22;37913;48.370;10.930;2023-07-02T07:35:23;17.00;99.90
13256;DHT22;37913;48.370;10.930;2023-07-02T07:37:50;17.50;99.90
13256;DHT22;37913;48.370;10.930;2023-07-02T07:40:18;17.70;99.90
13256;DHT22;37913;48.370;10.930;2023-07-02T07:42:45;17.80;99.90
13256;DHT22;37913;48.370;10.930;2023-07-02T07:45:12;17.70;99.90
13256;DHT22;37913;48.370;10.930;2023-07-02T07:47:39;17.90;99.90
13256;DHT22;37913;48.370;10.930;2023-07-02T07:50:07;18.20;99.90
13256;DHT22;37913;48.370;10.930;2023-07-02T07:52:38;18.50;99.90
13256;DHT22;37913;48.370;10.930;2023-07-02T07:55:05;18.60;99.90
13256;DHT22;37913;48.370;10.930;2023-07-02T07:57:34;18.40;99.90
13256;DHT22;37913;48.370;10.930;2023-07-02T08:00:02;18.30;99.90
13256;DHT22;37913;48.370;10.930;2023-07-02T08:02:31;18.40;99.90
13256;DHT22;37913;48.370;10.930;2023-07-02T08:04:58;18.30;99.90
13256;DHT22;37913;48.370;10.930;2023-07-02T08:07:25;18.60;99.90
13256;DHT22;37913;48.370;10.930;2023-07-02T08:09:52;18.60;99.90
13256;DHT22;37913;48.370;10.930;2023-07-02T08:12:19;18.90;99.90
13256;DHT22;37913;48.370;10.930;2023-07-02T08:14:47;19.70;99.90
13256;DHT22;37913;48.370;10.930;2023-07-02T08:17:14;20.80;99.90
13256;DHT22;37913;48.370;10.930;2023-07-02T08:19:41;22.00;99.90
13256;DHT22;37913;48.370;10.930;2023-07-02T08:22:08;22.90;99.90
13256;DHT22;37913;48.370;10.930;2023-07-02T08:24:35;24.10;99.90
13256;DHT22;37913;48.370;10.930;2023-07-02T08:27:02;25.00;99.90
13256;DHT22;37913;48.370;10.930;2023-07-02T08:29:29;25.70;99.90
13256;DHT22;37913;48.370;10.930;2023-07-02T08:31:57;26.00;99.90
13256;DHT22;37913;48.370;10.930;2023-07-02T08:34:25;26.00;99.90
13256;DHT22;37913;48.370;10.930;2023-07-02T08:36:52;25.20;99.90
13256;DHT22;37913;48.370;10.930;2023-07-02T08:39:19;25.30;99.90
13256;DHT22;37913;48.370;10.930;2023-07-02T08:41:46;24.60;99.90
13256;DHT22;37913;48.370;10.930;2023-07-02T08:44:14;23.60;99.90
13256;DHT22;37913;48.370;10.930;2023-07-02T08:46:42;21.30;99.90
13256;DHT22;37913;48.370;10.930;2023-07-02T08:49:10;20.50;99.90
13256;DHT22;37913;48.370;10.930;2023-07-02T08:51:38;20.50;99.90
13256;DHT22;37913;48.370;10.930;2023-07-02T08:54:04;20.70;99.90
13256;DHT22;37913;48.370;10.930;2023-07-02T08:56:33;21.30;99.90
13256;DHT22;37913;48.370;10.930;2023-07-02T08:59:00;21.40;99.90
13256;DHT22;37913;48.370;10.930;2023-07-02T09:01:27;21.50;99.90
13256;DHT22;37913;48.370;10.930;2023-07-02T09:03:58;21.80;99.90
13256;DHT22;37913;48.370;10.930;2023-07-02T09:06:28;22.10;99.90
13256;DHT22;37913;48.370;10.930;2023-07-02T09:09:03;22.40;99.90
13256;DHT22;37913;48.370;10.930;2023-07-02T09:11:31;22.60;99.90
13256;DHT22;37913;48.370;10.930;2023-07-02T09:13:58;22.50;99.90
13256;DHT22;37913;48.370;10.930;2023-07-02T09:16:27;22.50;99.90
13256;DHT22;37913;48.370;10.930;2023-07-02T09:19:02;22.40;99.90
13256;DHT22;37913;48.370;10.930;2023-07-02T09:21:42;22.20;99.90
13256;DHT22;37913;48.370;10.930;2023-07-02T09:24:14;21.80;99.90
13256;DHT22;37913;48.370;10.930;2023-07-02T09:26:48;21.80;99.90
13256;DHT22;37913;48.370;10.930;2023-07-02T09:29:18;21.20;99.90
13256;DHT22;37913;48.370;10.930;2023-07-02T09:31:46;21.60;99.90
13256;DHT22;37913;48.370;10.930;2023-07-02T09:34:14;21.30;99.90
13256;DHT22;37913;48.370;10.930;2023-07-02T09:36:43;22.60;99.90
13256;DHT22;37913;48.370;10.930;2023-07-02T09:39:12;23.50;99.90
13256;DHT22;37913;48.370;10.930;2023-07-02T09:41:40;25.10;99.90
13256;DHT22;37913;48.370;10.930;2023-07-02T09:44:08;26.40;99.90
13256;DHT22;37913;48.370;10.930;2023-07-02T09:46:37;24.50;99.90
13256;DHT22;37913;48.370;10.930;2023-07-02T09:49:14;24.70;99.90
13256;DHT22;37913;48.370;10.930;2023-07-02T09:51:43;24.30;99.90
13256;DHT22;37913;48.370;10.930;2023-07-02T09:54:11;26.30;99.90
13256;DHT22;37913;48.370;10.930;2023-07-02T09:56:39;24.70;99.90
13256;DHT22;37913;48.370;10.930;2023-07-02T09:59:06;25.30;99.90
13256;DHT22;37913;48.370;10.930;2023-07-02T10:01:33;23.90;99.90
13256;DHT22;37913;48.370;10.930;2023-07-02T10:04:11;22.60;99.90
13256;DHT22;37913;48.370;10.930;2023-07-02T10:06:46;23.70;99.90
13256;DHT22;37913;48.370;10.930;2023-07-02T10:09:13;25.60;99.90
13256;DHT22;37913;48.370;10.930;2023-07-02T10:11:40;28.40;99.90
13256;DHT22;37913;48.370;10.930;2023-07-02T10:14:07;30.10;98.80
13256;DHT22;37913;48.370;10.930;2023-07-02T10:16:34;29.70;96.20
13256;DHT22;37913;48.370;10.930;2023-07-02T10:19:10;29.70;97.00
13256;DHT22;37913;48.370;10.930;2023-07-02T10:21:37;29.90;96.50
13256;DHT22;37913;48.370;10.930;2023-07-02T10:24:13;27.50;98.60
13256;DHT22;37913;48.370;10.930;2023-07-02T10:26:51;24.60;99.90
13256;DHT22;37913;48.370;10.930;2023-07-02T10:29:19;23.80;99.90
13256;DHT22;37913;48.370;10.930;2023-07-02T10:31:50;22.30;99.90
13256;DHT22;37913;48.370;10.930;2023-07-02T10:34:28;22.50;99.90
13256;DHT22;37913;48.370;10.930;2023-07-02T10:36:55;23.50;99.90
13256;DHT22;37913;48.370;10.930;2023-07-02T10:39:23;23.60;99.90
13256;DHT22;37913;48.370;10.930;2023-07-02T10:41:52;23.20;99.90
13256;DHT22;37913;48.370;10.930;2023-07-02T10:44:19;23.90;99.90
13256;DHT22;37913;48.370;10.930;2023-07-02T10:46:47;23.60;99.90
13256;DHT22;37913;48.370;10.930;2023-07-02T10:49:16;23.80;99.90
13256;DHT22;37913;48.370;10.930;2023-07-02T10:51:44;26.00;99.90
13256;DHT22;37913;48.370;10.930;2023-07-02T10:54:11;26.80;99.90
13256;DHT22;37913;48.370;10.930;2023-07-02T10:56:41;29.60;98.80
13256;DHT22;37913;48.370;10.930;2023-07-02T10:59:09;29.30;97.90
13256;DHT22;37913;48.370;10.930;2023-07-02T11:01:36;28.70;98.40
13256;DHT22;37913;48.370;10.930;2023-07-02T11:04:04;27.70;99.90
13256;DHT22;37913;48.370;10.930;2023-07-02T11:06:32;25.70;99.90
13256;DHT22;37913;48.370;10.930;2023-07-02T11:09:00;26.10;99.90
13256;DHT22;37913;48.370;10.930;2023-07-02T11:11:27;26.90;99.90
13256;DHT22;37913;48.370;10.930;2023-07-02T11:13:56;25.90;99.90
13256;DHT22;37913;48.370;10.930;2023-07-02T11:16:23;28.70;99.90
13256;DHT22;37913;48.370;10.930;2023-07-02T11:18:52;30.60;96.60
13256;DHT22;37913;48.370;10.930;2023-07-02T11:21:20;30.00;95.00
13256;DHT22;37913;48.370;10.930;2023-07-02T11:23:47;27.80;97.70
13256;DHT22;37913;48.370;10.930;2023-07-02T11:26:14;27.30;97.50
13256;DHT22;37913;48.370;10.930;2023-07-02T11:28:50;25.10;98.60
13256;DHT22;37913;48.370;10.930;2023-07-02T11:31:26;23.40;99.90
13256;DHT22;37913;48.370;10.930;2023-07-02T11:33:53;23.30;99.90
13256;DHT22;37913;48.370;10.930;2023-07-02T11:36:22;22.50;99.90
13256;DHT22;37913;48.370;10.930;2023-07-02T11:38:50;22.30;99.90
13256;DHT22;37913;48.370;10.930;2023-07-02T11:41:19;22.60;99.90
13256;DHT22;37913;48.370;10.930;2023-07-02T11:43:46;22.80;99.90
13256;DHT22;37913;48.370;10.930;2023-07-02T11:46:13;22.10;99.90
13256;DHT22;37913;48.370;10.930;2023-07-02T11:48:42;22.00;99.90
13256;DHT22;37913;48.370;10.930;2023-07-02T11:51:09;23.00;99.90
13256;DHT22;37913;48.370;10.930;2023-07-02T11:53:36;25.00;99.90
13256;DHT22;37913;48.370;10.930;2023-07-02T11:56:03;25.50;99.90
13256;DHT22;37913;48.370;10.930;2023-07-02T11:58:30;27.80;99.40
13256;DHT22;37913;48.370;10.930;2023-07-02T12:00:57;28.40;98.00
13256;DHT22;37913;48.370;10.930;2023-07-02T12:03:23;27.50;98.00
13256;DHT22;37913;48.370;10.930;2023-07-02T12:05:52;27.40;97.90
13256;DHT22;37913;48.370;10.930;2023-07-02T12:08:19;26.60;98.50
13256;DHT22;37913;48.370;10.930;2023-07-02T12:10:45;25.60;99.90
13256;DHT22;37913;48.370;10.930;2023-07-02T12:13:12;25.50;99.90
13256;DHT22;37913;48.370;10.930;2023-07-02T12:15:40;25.30;99.90
13256;DHT22;37913;48.370;10.930;2023-07-02T12:18:07;24.30;99.90
13256;DHT22;37913;48.370;10.930;2023-07-02T12:20:35;26.50;99.90
13256;DHT22;37913;48.370;10.930;2023-07-02T12:23:06;25.70;99.80
13256;DHT22;37913;48.370;10.930;2023-07-02T12:25:33;28.00;98.80
13256;DHT22;37913;48.370;10.930;2023-07-02T12:28:01;32.40;93.50
13256;DHT22;37913;48.370;10.930;2023-07-02T12:30:28;34.00;89.50
13256;DHT22;37913;48.370;10.930;2023-07-02T12:32:55;35.20;84.60
13256;DHT22;37913;48.370;10.930;2023-07-02T12:35:22;36.70;77.90
13256;DHT22;37913;48.370;10.930;2023-07-02T12:37:50;33.40;78.60
13256;DHT22;37913;48.370;10.930;2023-07-02T12:40:20;31.60;83.50
13256;DHT22;37913;48.370;10.930;2023-07-02T12:42:47;32.70;80.80
13256;DHT22;37913;48.370;10.930;2023-07-02T12:45:15;29.40;84.80
13256;DHT22;37913;48.370;10.930;2023-07-02T12:47:43;29.00;88.40
13256;DHT22;37913;48.370;10.930;2023-07-02T12:50:10;31.00;85.70
13256;DHT22;37913;48.370;10.930;2023-07-02T12:52:37;33.80;80.20
13256;DHT22;37913;48.370;10.930;2023-07-02T12:55:05;33.50;77.30
13256;DHT22;37913;48.370;10.930;2023-07-02T12:57:39;30.00;81.60
13256;DHT22;37913;48.370;10.930;2023-07-02T13:00:07;26.70;88.20
13256;DHT22;37913;48.370;10.930;2023-07-02T13:02:35;26.30;90.80
13256;DHT22;37913;48.370;10.930;2023-07-02T13:05:02;26.70;91.40
13256;DHT22;37913;48.370;10.930;2023-07-02T13:07:29;30.10;84.90
13256;DHT22;37913;48.370;10.930;2023-07-02T13:09:56;31.50;82.00
13256;DHT22;37913;48.370;10.930;2023-07-02T13:12:23;29.00;83.80
13256;DHT22;37913;48.370;10.930;2023-07-02T13:14:58;28.30;85.60
13256;DHT22;37913;48.370;10.930;2023-07-02T13:17:25;25.70;88.00
13256;DHT22;37913;48.370;10.930;2023-07-02T13:19:52;25.40;90.40
13256;DHT22;37913;48.370;10.930;2023-07-02T13:22:18;26.40;88.80
13256;DHT22;37913;48.370;10.930;2023-07-02T13:24:45;26.90;86.90
13256;DHT22;37913;48.370;10.930;2023-07-02T13:27:14;25.30;87.20
13256;DHT22;37913;48.370;10.930;2023-07-02T13:29:42;24.40;90.10
13256;DHT22;37913;48.370;10.930;2023-07-02T13:32:13;24.80;89.10
13256;DHT22;37913;48.370;10.930;2023-07-02T13:34:39;25.00;90.20
13256;DHT22;37913;48.370;10.930;2023-07-02T13:37:08;24.70;91.70
13256;DHT22;37913;48.370;10.930;2023-07-02T13:39:35;24.10;93.40
13256;DHT22;37913;48.370;10.930;2023-07-02T13:42:03;24.60;94.30
13256;DHT22;37913;48.370;10.930;2023-07-02T13:44:30;24.80;94.20
13256;DHT22;37913;48.370;10.930;2023-07-02T13:46:57;26.20;92.50
13256;DHT22;37913;48.370;10.930;2023-07-02T13:49:27;26.00;92.80
13256;DHT22;37913;48.370;10.930;2023-07-02T13:51:54;26.10;92.70
13256;DHT22;37913;48.370;10.930;2023-07-02T13:54:21;26.00;92.90
13256;DHT22;37913;48.370;10.930;2023-07-02T13:56:48;26.60;93.40
13256;DHT22;37913;48.370;10.930;2023-07-02T13:59:17;27.10;92.10
13256;DHT22;37913;48.370;10.930;2023-07-02T14:01:44;27.40;92.50
13256;DHT22;37913;48.370;10.930;2023-07-02T14:04:12;26.90;93.00
13256;DHT22;37913;48.370;10.930;2023-07-02T14:06:40;25.80;93.50
13256;DHT22;37913;48.370;10.930;2023-07-02T14:09:07;25.30;93.60
13256;DHT22;37913;48.370;10.930;2023-07-02T14:11:35;24.70;94.50
13256;DHT22;37913;48.370;10.930;2023-07-02T14:14:02;25.30;93.80
13256;DHT22;37913;48.370;10.930;2023-07-02T14:16:31;25.20;94.00
13256;DHT22;37913;48.370;10.930;2023-07-02T14:18:58;24.90;94.50
13256;DHT22;37913;48.370;10.930;2023-07-02T14:21:25;24.60;94.40
13256;DHT22;37913;48.370;10.930;2023-07-02T14:23:52;24.90;95.10
13256;DHT22;37913;48.370;10.930;2023-07-02T14:26:19;24.80;95.50
13256;DHT22;37913;48.370;10.930;2023-07-02T14:28:46;24.80;95.80
13256;DHT22;37913;48.370;10.930;2023-07-02T14:31:13;24.50;96.40
13256;DHT22;37913;48.370;10.930;2023-07-02T14:33:42;24.60;96.30
13256;DHT22;37913;48.370;10.930;2023-07-02T14:36:08;24.60;96.40
13256;DHT22;37913;48.370;10.930;2023-07-02T14:38:35;24.90;95.90
13256;DHT22;37913;48.370;10.930;2023-07-02T14:41:03;25.10;95.10
13256;DHT22;37913;48.370;10.930;2023-07-02T14:43:31;25.60;95.50
13256;DHT22;37913;48.370;10.930;2023-07-02T14:46:00;25.80;94.60
13256;DHT22;37913;48.370;10.930;2023-07-02T14:48:28;25.10;94.70
13256;DHT22;37913;48.370;10.930;2023-07-02T14:50:58;24.50;95.90
13256;DHT22;37913;48.370;10.930;2023-07-02T14:53:25;24.50;96.40
13256;DHT22;37913;48.370;10.930;2023-07-02T14:55:54;24.80;95.80
13256;DHT22;37913;48.370;10.930;2023-07-02T14:58:22;25.20;95.50
13256;DHT22;37913;48.370;10.930;2023-07-02T15:00:51;24.90;95.60
13256;DHT22;37913;48.370;10.930;2023-07-02T15:03:20;25.00;95.00
13256;DHT22;37913;48.370;10.930;2023-07-02T15:05:48;24.40;95.10
13256;DHT22;37913;48.370;10.930;2023-07-02T15:08:17;24.00;96.20
13256;DHT22;37913;48.370;10.930;2023-07-02T15:10:46;24.10;96.70
13256;DHT22;37913;48.370;10.930;2023-07-02T15:13:14;24.70;96.30
13256;DHT22;37913;48.370;10.930;2023-07-02T15:15:44;25.10;96.70
13256;DHT22;37913;48.370;10.930;2023-07-02T15:18:11;25.40;95.80
13256;DHT22;37913;48.370;10.930;2023-07-02T15:20:38;25.20;95.50